createdAt,value
2019-03-21T00:00:31.033Z,9.30
2019-03-21T00:03:01.203Z,9.20
2019-03-21T00:05:33.757Z,9.20
2019-03-21T00:08:05.271Z,9.20
2019-03-21T00:11:31.064Z,9.10
2019-03-21T00:14:07.201Z,9.00
2019-03-21T00:16:36.432Z,9.00
2019-03-21T00:19:06.602Z,8.90
2019-03-21T00:21:36.720Z,8.80
2019-03-21T00:24:07.822Z,8.80
2019-03-21T00:26:38.357Z,8.80
2019-03-21T00:29:09.029Z,8.70
2019-03-21T00:31:39.138Z,8.70
2019-03-21T00:34:09.328Z,8.70
2019-03-21T00:36:39.446Z,8.70
2019-03-21T00:39:10.710Z,8.70
2019-03-21T00:41:40.826Z,8.70
2019-03-21T00:44:18.126Z,8.70
2019-03-21T00:46:42.735Z,8.60
2019-03-21T00:49:14.634Z,8.60
2019-03-21T00:51:44.741Z,8.60
2019-03-21T00:54:15.217Z,8.60
2019-03-21T00:56:45.325Z,8.60
2019-03-21T00:59:15.857Z,8.50
2019-03-21T01:01:46.733Z,8.50
2019-03-21T01:04:16.902Z,8.50
2019-03-21T01:06:47.122Z,8.40
2019-03-21T01:09:17.497Z,8.40
2019-03-21T01:11:48.020Z,8.30
2019-03-21T01:14:29.176Z,8.30
2019-03-21T01:16:50.114Z,8.30
2019-03-21T01:19:20.631Z,8.20
2019-03-21T01:21:50.894Z,8.20
2019-03-21T01:24:21.060Z,8.20
2019-03-21T01:26:52.022Z,8.20
2019-03-21T01:29:22.552Z,8.20
2019-03-21T01:31:54.532Z,8.10
2019-03-21T01:34:24.485Z,8.20
2019-03-21T01:36:54.609Z,8.10
2019-03-21T01:39:25.164Z,8.10
2019-03-21T01:41:55.653Z,8.00
2019-03-21T01:44:26.187Z,8.00
2019-03-21T01:46:56.665Z,7.90
2019-03-21T01:49:27.239Z,7.90
2019-03-21T01:51:57.355Z,7.90
2019-03-21T01:54:28.032Z,7.90
2019-03-21T01:56:58.160Z,7.90
2019-03-21T01:59:28.317Z,7.80
2019-03-21T02:01:58.740Z,7.80
2019-03-21T02:04:29.440Z,7.80
2019-03-21T02:06:59.568Z,7.80
2019-03-21T02:09:29.735Z,7.80
2019-03-21T02:11:59.808Z,7.80
2019-03-21T02:14:29.974Z,7.70
2019-03-21T02:17:00.177Z,7.70
2019-03-21T02:19:30.341Z,7.70
2019-03-21T02:22:00.455Z,7.70
2019-03-21T02:24:30.608Z,7.60
2019-03-21T02:27:00.729Z,7.60
2019-03-21T02:29:31.434Z,7.50
2019-03-21T02:32:01.916Z,7.50
2019-03-21T02:34:32.901Z,7.50
2019-03-21T02:37:03.598Z,7.50
2019-03-21T02:39:33.771Z,7.50
2019-03-21T02:42:03.880Z,7.40
2019-03-21T02:44:37.525Z,7.40
2019-03-21T02:47:07.689Z,7.40
2019-03-21T02:49:37.859Z,7.40
2019-03-21T02:52:08.302Z,7.30
2019-03-21T02:54:38.772Z,7.30
2019-03-21T02:57:08.908Z,7.30
2019-03-21T02:59:39.076Z,7.30
2019-03-21T03:02:09.195Z,7.20
2019-03-21T03:04:39.371Z,7.20
2019-03-21T03:07:09.511Z,7.10
2019-03-21T03:09:40.074Z,7.00
2019-03-21T03:12:29.126Z,6.90
2019-03-21T03:14:59.477Z,6.90
2019-03-21T03:17:30.407Z,6.80
2019-03-21T03:20:00.754Z,6.70
2019-03-21T03:22:31.007Z,6.70
2019-03-21T03:25:02.252Z,6.60
2019-03-21T03:27:33.040Z,6.60
2019-03-21T03:30:03.816Z,6.50
2019-03-21T03:32:34.172Z,6.50
2019-03-21T03:35:05.059Z,6.40
2019-03-21T03:37:35.448Z,6.40
2019-03-21T03:40:06.518Z,6.40
2019-03-21T03:42:36.808Z,6.40
2019-03-21T03:45:10.017Z,6.40
2019-03-21T03:47:40.314Z,6.40
2019-03-21T03:50:11.086Z,6.40
2019-03-21T03:52:41.372Z,6.40
2019-03-21T03:55:12.771Z,6.50
2019-03-21T03:57:43.102Z,6.50
2019-03-21T04:00:17.110Z,6.40
2019-03-21T04:02:49.777Z,6.40
2019-03-21T04:05:21.114Z,6.40
2019-03-21T04:07:51.489Z,6.40
2019-03-21T04:10:25.051Z,6.40
2019-03-21T04:12:55.367Z,6.30
2019-03-21T04:15:26.056Z,6.30
2019-03-21T04:17:56.865Z,6.30
2019-03-21T04:20:29.460Z,6.20
2019-03-21T04:22:59.856Z,6.20
2019-03-21T04:25:42.702Z,6.10
2019-03-21T04:28:15.191Z,6.10
2019-03-21T04:30:46.615Z,6.00
2019-03-21T04:33:16.924Z,6.00
2019-03-21T04:35:47.274Z,6.00
2019-03-21T04:38:18.014Z,5.90
2019-03-21T04:40:48.770Z,5.90
2019-03-21T04:43:19.687Z,5.90
2019-03-21T04:45:50.016Z,5.80
2019-03-21T04:48:20.708Z,5.80
2019-03-21T04:50:51.397Z,5.80
2019-03-21T04:53:22.266Z,5.80
2019-03-21T04:55:53.187Z,5.80
2019-03-21T04:58:23.485Z,5.70
2019-03-21T05:00:54.472Z,5.70
2019-03-21T05:03:25.421Z,5.70
2019-03-21T05:05:56.122Z,5.70
2019-03-21T05:08:26.406Z,5.70
2019-03-21T05:10:56.723Z,5.70
2019-03-21T05:13:27.668Z,5.70
2019-03-21T05:15:58.926Z,5.70
2019-03-21T05:18:32.508Z,5.70
2019-03-21T05:21:03.387Z,5.70
2019-03-21T05:23:33.656Z,5.70
2019-03-21T05:26:04.364Z,5.70
2019-03-21T05:28:34.701Z,5.70
2019-03-21T05:31:11.031Z,5.70
2019-03-21T05:33:41.318Z,5.80
2019-03-21T05:36:12.064Z,5.80
2019-03-21T05:38:42.868Z,5.80
2019-03-21T05:41:13.184Z,5.80
2019-03-21T05:43:47.162Z,5.70
2019-03-21T05:46:26.150Z,5.70
2019-03-21T05:48:49.774Z,5.80
2019-03-21T05:51:21.095Z,5.70
2019-03-21T05:53:51.398Z,5.70
2019-03-21T05:56:22.145Z,5.80
2019-03-21T05:58:52.819Z,5.80
2019-03-21T06:01:24.035Z,5.80
2019-03-21T06:03:55.181Z,5.80
2019-03-21T06:06:34.004Z,5.80
2019-03-21T06:09:04.883Z,5.80
2019-03-21T06:11:35.228Z,5.80
2019-03-21T06:14:06.871Z,5.80
2019-03-21T06:16:37.978Z,5.80
2019-03-21T06:19:50.014Z,5.80
2019-03-21T06:23:01.765Z,5.80
2019-03-21T06:26:21.391Z,5.80
2019-03-21T06:28:51.743Z,5.80
2019-03-21T06:31:22.077Z,5.80
2019-03-21T06:33:52.427Z,5.80
2019-03-21T06:36:22.833Z,5.80
2019-03-21T06:38:53.526Z,5.80
2019-03-21T06:41:24.156Z,5.90
2019-03-21T06:43:54.457Z,5.90
2019-03-21T06:46:24.756Z,6.00
2019-03-21T06:48:55.094Z,6.00
2019-03-21T06:51:26.399Z,6.00
2019-03-21T06:53:57.275Z,6.10
2019-03-21T06:56:28.228Z,6.10
2019-03-21T06:58:58.941Z,6.10
2019-03-21T07:01:29.279Z,6.20
2019-03-21T07:04:07.048Z,6.20
2019-03-21T07:06:31.968Z,6.20
2019-03-21T07:09:02.760Z,6.20
2019-03-21T07:11:33.080Z,6.30
2019-03-21T07:14:03.362Z,6.30
2019-03-21T07:16:33.706Z,6.30
2019-03-21T07:19:04.567Z,6.40
2019-03-21T07:21:34.949Z,6.40
2019-03-21T07:24:05.288Z,6.40
2019-03-21T07:26:35.621Z,6.40
2019-03-21T07:29:06.398Z,6.50
2019-03-21T07:31:37.335Z,6.50
2019-03-21T07:34:10.113Z,6.50
2019-03-21T07:36:40.288Z,6.50
2019-03-21T07:39:10.596Z,6.60
2019-03-21T07:41:40.942Z,6.60
2019-03-21T07:44:12.077Z,6.60
2019-03-21T07:46:42.412Z,6.60
2019-03-21T07:49:12.732Z,6.70
2019-03-21T07:51:45.080Z,6.70
2019-03-21T07:54:15.420Z,6.70
2019-03-21T07:56:46.119Z,6.80
2019-03-21T07:59:16.794Z,6.80
2019-03-21T08:01:47.139Z,6.80
2019-03-21T08:04:17.420Z,6.80
2019-03-21T08:06:49.051Z,6.90
2019-03-21T08:09:19.741Z,6.90
2019-03-21T08:11:50.074Z,6.90
2019-03-21T08:14:20.371Z,7.00
2019-03-21T08:16:51.120Z,7.00
2019-03-21T08:19:21.925Z,7.10
2019-03-21T08:21:52.737Z,7.10
2019-03-21T08:24:23.370Z,7.10
2019-03-21T08:26:55.535Z,7.20
2019-03-21T08:29:25.823Z,7.20
2019-03-21T08:31:56.201Z,7.20
2019-03-21T08:34:26.505Z,7.30
2019-03-21T08:36:58.531Z,7.30
2019-03-21T08:39:29.606Z,7.40
2019-03-21T08:42:00.133Z,7.40
2019-03-21T08:44:30.949Z,7.50
2019-03-21T08:47:01.299Z,7.50
2019-03-21T08:49:32.476Z,7.60
2019-03-21T08:52:03.200Z,7.60
2019-03-21T08:54:35.052Z,7.70
2019-03-21T08:57:06.002Z,7.80
2019-03-21T08:59:36.908Z,7.80
2019-03-21T09:02:07.649Z,7.90
2019-03-21T09:04:38.316Z,7.90
2019-03-21T09:07:09.328Z,8.00
2019-03-21T09:09:40.216Z,8.00
2019-03-21T09:12:11.102Z,8.10
2019-03-21T09:14:42.308Z,8.10
2019-03-21T09:17:13.067Z,8.20
2019-03-21T09:19:43.816Z,8.30
2019-03-21T09:22:16.006Z,8.30
2019-03-21T09:24:47.281Z,8.40
2019-03-21T09:27:18.303Z,8.40
2019-03-21T09:29:53.451Z,8.50
2019-03-21T09:32:21.230Z,8.60
2019-03-21T09:34:52.253Z,8.60
2019-03-21T09:37:22.899Z,8.70
2019-03-21T09:39:53.242Z,8.70
2019-03-21T09:42:24.127Z,8.80
2019-03-21T09:44:54.799Z,8.80
2019-03-21T09:47:25.797Z,8.90
2019-03-21T09:49:56.149Z,9.00
2019-03-21T09:52:27.170Z,9.00
2019-03-21T09:54:57.482Z,9.10
2019-03-21T09:57:28.839Z,9.10
2019-03-21T09:59:59.509Z,9.20
2019-03-21T10:02:30.921Z,9.20
2019-03-21T10:05:01.599Z,9.30
2019-03-21T10:07:32.506Z,9.40
2019-03-21T10:10:03.828Z,9.40
2019-03-21T10:12:35.307Z,9.50
2019-03-21T10:15:06.464Z,9.60
2019-03-21T10:17:36.805Z,9.60
2019-03-21T10:20:07.543Z,9.70
2019-03-21T10:22:37.880Z,9.70
2019-03-21T10:25:08.716Z,9.80
2019-03-21T10:27:39.465Z,10.00
2019-03-21T10:30:11.229Z,10.00
2019-03-21T10:32:42.099Z,10.10
2019-03-21T10:35:12.819Z,10.20
2019-03-21T10:37:44.201Z,10.40
2019-03-21T10:40:14.513Z,10.50
2019-03-21T10:42:45.270Z,10.60
2019-03-21T10:45:16.091Z,10.70
2019-03-21T10:47:46.395Z,10.80
2019-03-21T10:50:19.881Z,10.90
2019-03-21T10:52:50.941Z,11.00
2019-03-21T10:55:21.281Z,11.00
2019-03-21T10:57:52.526Z,11.10
2019-03-21T11:00:23.297Z,11.20
2019-03-21T11:02:53.667Z,11.30
2019-03-21T11:05:24.904Z,11.50
2019-03-21T11:08:20.634Z,11.60
2019-03-21T11:10:51.471Z,11.70
2019-03-21T11:13:22.220Z,11.90
2019-03-21T11:15:52.534Z,12.00
2019-03-21T11:18:22.943Z,12.10
2019-03-21T11:20:53.647Z,12.20
2019-03-21T11:23:23.995Z,12.40
2019-03-21T11:25:54.731Z,12.50
2019-03-21T11:28:25.053Z,12.60
2019-03-21T11:30:55.441Z,12.70
2019-03-21T11:33:26.962Z,12.90
2019-03-21T11:35:57.711Z,13.00
2019-03-21T11:38:28.454Z,13.20
2019-03-21T11:40:59.415Z,13.30
2019-03-21T11:43:30.807Z,13.40
2019-03-21T11:46:01.201Z,13.60
2019-03-21T11:48:31.874Z,13.80
2019-03-21T11:51:03.405Z,13.90
2019-03-21T11:53:34.167Z,14.00
2019-03-21T11:56:05.708Z,14.20
2019-03-21T11:58:36.609Z,14.30
2019-03-21T12:01:07.358Z,14.40
2019-03-21T12:03:37.705Z,14.60
2019-03-21T12:06:08.276Z,14.70
2019-03-21T12:08:40.076Z,14.80
2019-03-21T12:11:10.844Z,14.00
2019-03-21T12:13:41.183Z,15.10
2019-03-21T12:16:12.082Z,15.20
2019-03-21T12:18:43.075Z,15.40
2019-03-21T12:21:13.431Z,15.50
2019-03-21T12:23:44.498Z,15.70
2019-03-21T12:26:15.286Z,15.80
2019-03-21T12:28:46.026Z,15.90
2019-03-21T12:31:17.244Z,16.10
2019-03-21T12:33:48.189Z,16.20
2019-03-21T12:36:18.580Z,16.40
2019-03-21T12:38:48.938Z,16.50
2019-03-21T12:41:20.196Z,16.60
2019-03-21T12:43:50.544Z,16.80
2019-03-21T12:46:22.029Z,16.90
2019-03-21T12:48:52.347Z,17.00
2019-03-21T12:51:23.365Z,17.20
2019-03-21T12:53:53.699Z,17.30
2019-03-21T12:56:24.103Z,17.50
2019-03-21T12:58:54.397Z,17.60
2019-03-21T13:01:25.209Z,17.70
2019-03-21T13:03:55.614Z,17.90
2019-03-21T13:06:26.843Z,18.00
2019-03-21T13:08:57.610Z,18.20
2019-03-21T13:11:28.350Z,18.30
2019-03-21T13:13:59.718Z,18.40
2019-03-21T13:16:30.466Z,18.60
2019-03-21T13:19:01.606Z,18.80
2019-03-21T13:21:33.036Z,18.90
2019-03-21T13:24:03.349Z,19.10
2019-03-21T13:26:33.720Z,19.20
2019-03-21T13:29:04.040Z,19.40
2019-03-21T13:31:35.145Z,19.60
2019-03-21T13:34:05.883Z,19.70
2019-03-21T13:36:36.598Z,19.80
2019-03-21T13:39:08.940Z,20.00
2019-03-21T13:41:39.792Z,20.10
2019-03-21T13:44:10.726Z,20.30
2019-03-21T13:46:41.119Z,20.50
2019-03-21T13:49:11.799Z,20.60
2019-03-21T13:51:43.051Z,20.70
2019-03-21T13:54:13.394Z,20.90
2019-03-21T13:56:43.746Z,21.00
2019-03-21T13:59:14.996Z,21.20
2019-03-21T14:01:47.390Z,21.30
2019-03-21T14:04:17.752Z,21.40
2019-03-21T14:06:48.584Z,21.60
2019-03-21T14:09:20.389Z,21.70
2019-03-21T14:11:51.346Z,21.90
2019-03-21T14:14:21.714Z,22.00
2019-03-21T14:16:52.557Z,22.20
2019-03-21T14:19:23.701Z,22.30
2019-03-21T14:21:54.425Z,22.50
2019-03-21T14:24:24.747Z,22.60
2019-03-21T14:26:55.625Z,22.70
2019-03-21T14:29:26.278Z,22.80
2019-03-21T14:31:57.073Z,22.90
2019-03-21T14:34:27.467Z,23.00
2019-03-21T14:36:57.898Z,23.10
2019-03-21T14:39:28.336Z,23.20
2019-03-21T14:41:59.313Z,23.30
2019-03-21T14:44:29.647Z,23.30
2019-03-21T14:47:00.366Z,23.40
2019-03-21T14:49:31.287Z,23.50
2019-03-21T14:52:01.682Z,23.50
2019-03-21T14:54:32.003Z,23.60
2019-03-21T14:57:04.025Z,23.60
2019-03-21T14:59:34.794Z,23.70
2019-03-21T15:02:05.570Z,23.70
2019-03-21T15:04:37.750Z,23.80
2019-03-21T15:07:08.887Z,23.80
2019-03-21T15:09:39.205Z,23.80
2019-03-21T15:12:09.576Z,23.80
2019-03-21T15:14:40.477Z,23.90
2019-03-21T15:17:12.329Z,24.00
2019-03-21T15:19:43.530Z,24.10
2019-03-21T15:22:14.203Z,24.30
2019-03-21T15:24:44.513Z,24.40
2019-03-21T15:27:14.875Z,24.60
2019-03-21T15:29:45.485Z,24.80
2019-03-21T15:32:16.811Z,24.80
2019-03-21T15:34:48.661Z,25.00
2019-03-21T15:37:19.801Z,25.10
2019-03-21T15:39:50.938Z,25.30
2019-03-21T15:42:22.179Z,25.40
2019-03-21T15:44:53.056Z,25.50
2019-03-21T15:47:24.307Z,25.60
2019-03-21T15:49:54.612Z,25.70
2019-03-21T15:52:25.317Z,25.80
2019-03-21T15:54:56.486Z,25.90
2019-03-21T15:57:28.019Z,25.90
2019-03-21T15:59:58.777Z,25.90
2019-03-21T16:02:29.074Z,26.00
2019-03-21T16:04:59.422Z,26.00
2019-03-21T16:07:30.931Z,26.10
2019-03-21T16:10:01.285Z,26.10
2019-03-21T16:12:31.780Z,26.10
2019-03-21T16:15:03.354Z,26.10
2019-03-21T16:17:34.534Z,26.10
2019-03-21T16:20:06.147Z,26.10
2019-03-21T16:22:36.568Z,26.10
2019-03-21T16:25:11.856Z,26.10
2019-03-21T16:27:42.141Z,26.00
2019-03-21T16:30:12.589Z,25.90
2019-03-21T16:32:43.972Z,25.90
2019-03-21T16:35:14.787Z,25.70
2019-03-21T16:37:45.958Z,25.50
2019-03-21T16:40:16.356Z,25.30
2019-03-21T16:42:47.283Z,25.00
2019-03-21T16:45:17.888Z,24.70
2019-03-21T16:47:48.581Z,24.50
2019-03-21T16:50:20.102Z,24.20
2019-03-21T16:52:52.509Z,24.00
2019-03-21T16:55:22.894Z,23.80
2019-03-21T16:57:53.647Z,23.60
2019-03-21T17:00:24.412Z,23.30
2019-03-21T17:02:54.765Z,23.20
2019-03-21T17:05:26.648Z,23.00
2019-03-21T17:08:10.086Z,22.80
2019-03-21T17:10:30.796Z,22.60
2019-03-21T17:13:04.641Z,22.40
2019-03-21T17:15:35.929Z,22.30
2019-03-21T17:18:06.642Z,22.10
2019-03-21T17:20:37.078Z,21.90
2019-03-21T17:23:07.414Z,21.80
2019-03-21T17:25:38.180Z,21.60
2019-03-21T17:28:09.475Z,21.40
2019-03-21T17:30:39.953Z,21.30
2019-03-21T17:33:10.311Z,21.10
2019-03-21T17:35:41.726Z,21.00
2019-03-21T17:38:12.482Z,20.90
2019-03-21T17:40:43.501Z,20.70
2019-03-21T17:43:14.477Z,20.60
2019-03-21T17:45:45.970Z,20.50
2019-03-21T17:48:17.714Z,20.40
2019-03-21T17:50:48.871Z,20.20
2019-03-21T17:53:22.109Z,20.10
2019-03-21T17:55:53.633Z,20.00
2019-03-21T17:58:23.971Z,19.90
2019-03-21T18:00:54.338Z,19.80
2019-03-21T18:03:25.100Z,19.60
2019-03-21T18:05:55.453Z,19.50
2019-03-21T18:08:25.788Z,19.40
2019-03-21T18:10:57.357Z,19.30
2019-03-21T18:13:28.239Z,19.30
2019-03-21T18:15:58.925Z,19.20
2019-03-21T18:18:29.225Z,19.10
2019-03-21T18:20:59.585Z,19.00
2019-03-21T18:23:29.944Z,18.90
2019-03-21T18:26:01.705Z,18.80
2019-03-21T18:28:32.051Z,18.70
2019-03-21T18:31:02.337Z,18.70
2019-03-21T18:33:32.669Z,18.60
2019-03-21T18:36:14.446Z,18.50
2019-03-21T18:38:56.334Z,18.40
2019-03-21T18:41:18.213Z,18.40
2019-03-21T18:43:49.351Z,18.30
2019-03-21T18:46:20.122Z,18.20
2019-03-21T18:48:50.485Z,18.10
2019-03-21T18:51:21.666Z,18.10
2019-03-21T18:53:52.310Z,18.00
2019-03-21T18:56:23.146Z,17.90
2019-03-21T18:58:55.189Z,17.90
2019-03-21T19:01:25.645Z,17.80
2019-03-21T19:03:55.953Z,17.70
2019-03-21T19:06:26.658Z,17.70
2019-03-21T19:08:56.971Z,17.60
2019-03-21T19:11:27.316Z,17.60
2019-03-21T19:13:58.426Z,17.50
2019-03-21T19:16:31.919Z,17.40
2019-03-21T19:19:01.982Z,17.30
2019-03-21T19:21:32.749Z,17.30
2019-03-21T19:24:03.064Z,17.20
2019-03-21T19:26:34.335Z,17.20
2019-03-21T19:29:04.995Z,17.10
2019-03-21T19:31:36.358Z,17.10
2019-03-21T19:34:07.035Z,17.00
2019-03-21T19:36:37.751Z,16.90
2019-03-21T19:39:10.266Z,16.90
2019-03-21T19:41:41.053Z,16.80
2019-03-21T19:44:12.445Z,16.70
2019-03-21T19:46:42.803Z,16.70
2019-03-21T19:49:13.940Z,16.60
2019-03-21T19:51:44.317Z,16.60
2019-03-21T19:54:14.625Z,16.50
2019-03-21T19:56:46.891Z,16.40
2019-03-21T19:59:17.739Z,16.40
2019-03-21T20:01:48.092Z,16.30
2019-03-21T20:04:18.909Z,16.20
2019-03-21T20:06:50.978Z,16.20
2019-03-21T20:09:21.288Z,16.10
2019-03-21T20:11:52.206Z,16.10
2019-03-21T20:14:23.394Z,16.00
2019-03-21T20:16:54.165Z,15.90
2019-03-21T20:19:25.286Z,15.90
2019-03-21T20:21:56.350Z,15.80
2019-03-21T20:24:27.171Z,15.80
2019-03-21T20:26:58.214Z,15.70
2019-03-21T20:29:30.429Z,15.60
2019-03-21T20:32:00.805Z,15.60
2019-03-21T20:34:31.459Z,15.50
2019-03-21T20:37:02.456Z,15.50
2019-03-21T20:39:33.334Z,15.40
2019-03-21T20:42:03.682Z,15.30
2019-03-21T20:44:34.490Z,15.30
2019-03-21T20:47:05.770Z,15.30
2019-03-21T20:49:36.951Z,15.20
2019-03-21T20:52:07.723Z,15.20
2019-03-21T20:54:38.215Z,15.20
2019-03-21T20:57:08.582Z,15.10
2019-03-21T20:59:39.393Z,15.10
2019-03-21T21:02:10.334Z,15.00
2019-03-21T21:04:40.989Z,15.00
2019-03-21T21:07:11.351Z,14.90
2019-03-21T21:09:41.679Z,14.90
2019-03-21T21:12:12.904Z,14.90
2019-03-21T21:14:43.799Z,14.80
2019-03-21T21:17:16.639Z,14.80
2019-03-21T21:19:47.820Z,14.70
2019-03-21T21:22:18.156Z,14.70
2019-03-21T21:24:49.294Z,14.70
2019-03-21T21:27:19.655Z,14.60
2019-03-21T21:29:52.227Z,14.60
2019-03-21T21:32:22.971Z,14.50
2019-03-21T21:34:54.569Z,14.50
2019-03-21T21:37:25.241Z,14.40
2019-03-21T21:39:56.506Z,14.40
2019-03-21T21:42:27.358Z,14.30
2019-03-21T21:44:58.656Z,14.30
2019-03-21T21:47:29.341Z,14.20
2019-03-21T21:50:00.741Z,14.20
2019-03-21T21:52:41.610Z,14.10
2019-03-21T21:55:03.482Z,14.10
2019-03-21T21:57:34.223Z,14.00
2019-03-21T22:00:06.531Z,14.00
2019-03-21T22:02:37.294Z,14.00
2019-03-21T22:05:08.371Z,13.90
2019-03-21T22:07:38.947Z,13.90
2019-03-21T22:10:09.308Z,13.90
2019-03-21T22:12:39.627Z,13.80
2019-03-21T22:15:11.052Z,13.80
2019-03-21T22:17:41.405Z,13.70
2019-03-21T22:20:12.682Z,13.70
2019-03-21T22:22:43.481Z,13.60
2019-03-21T22:25:15.033Z,13.60
2019-03-21T22:27:45.425Z,13.50
2019-03-21T22:30:16.026Z,13.50
2019-03-21T22:32:46.357Z,13.40
2019-03-21T22:35:17.279Z,13.40
2019-03-21T22:37:49.101Z,13.30
2019-03-21T22:40:20.186Z,13.30
2019-03-21T22:42:50.537Z,13.20
2019-03-21T22:45:21.210Z,13.20
2019-03-21T22:47:51.980Z,13.20
2019-03-21T22:50:22.336Z,13.10
2019-03-21T22:52:53.249Z,13.10
2019-03-21T22:55:24.615Z,13.10
2019-03-21T22:57:54.958Z,13.00
2019-03-21T23:00:30.126Z,13.00
2019-03-21T23:03:01.094Z,12.90
2019-03-21T23:05:33.388Z,12.80
2019-03-21T23:08:04.854Z,12.80
2019-03-21T23:10:35.584Z,12.80
2019-03-21T23:13:06.385Z,12.70
2019-03-21T23:15:36.834Z,12.70
2019-03-21T23:18:07.260Z,12.70
2019-03-21T23:20:38.308Z,12.60
2019-03-21T23:23:08.929Z,12.60
2019-03-21T23:25:40.170Z,12.60
2019-03-21T23:28:11.598Z,12.50
2019-03-21T23:30:42.551Z,12.50
2019-03-21T23:33:13.596Z,12.50
2019-03-21T23:35:44.030Z,12.50
2019-03-21T23:38:15.037Z,12.40
2019-03-21T23:40:46.121Z,12.40
2019-03-21T23:43:16.528Z,12.40
2019-03-21T23:45:46.938Z,12.30
2019-03-21T23:48:17.395Z,12.30
2019-03-21T23:50:47.813Z,12.30
2019-03-21T23:53:18.714Z,12.30
2019-03-21T23:55:49.831Z,12.20
2019-03-21T23:58:20.723Z,12.20
